Time;durP1;ratioP1;P1;durP2;ratioP2;P2;SDS_P1;SDS_P2;PMS_P1;PMS_P2;Temp;Humidity;BMP_temperature;BMP_pressure;BME280_temperature;BME280_humidity;BME280_pressure;Samples;Min_cycle;Max_cycle;Signal;HPM_P1;HPM_P2
2023/05/18 00:00:09;;;;;;;9.10;4.32;;;8.10;99.90;;;;;;5134609;27;20482;-55
2023/05/18 00:02:37;;;;;;;6.60;3.83;;;8.10;99.90;;;;;;5129314;27;20389;-54
2023/05/18 00:05:04;;;;;;;6.30;4.22;;;8.00;99.90;;;;;;5114284;28;20074;-52
2023/05/18 00:07:32;;;;;;;9.82;4.32;;;8.00;99.90;;;;;;5133233;27;20042;-52
2023/05/18 00:10:00;;;;;;;6.05;4.07;;;8.00;99.90;;;;;;5126558;27;20118;-52
2023/05/18 00:12:27;;;;;;;9.10;4.40;;;8.00;99.90;;;;;;5125809;27;20044;-52
2023/05/18 00:14:54;;;;;;;6.78;4.20;;;8.00;99.90;;;;;;5134571;27;20039;-52
2023/05/18 00:17:21;;;;;;;7.65;3.95;;;7.90;99.90;;;;;;5125130;27;20053;-53
2023/05/18 00:19:49;;;;;;;11.02;4.60;;;7.90;99.90;;;;;;5133105;27;20130;-56
2023/05/18 00:22:18;;;;;;;7.28;4.60;;;7.90;99.90;;;;;;5129522;27;20479;-54
2023/05/18 00:24:46;;;;;;;7.55;4.30;;;7.90;99.90;;;;;;5113196;28;20122;-52
2023/05/18 00:27:13;;;;;;;11.63;4.70;;;7.90;99.90;;;;;;5130063;27;20039;-51
2023/05/18 00:29:40;;;;;;;9.95;4.85;;;7.90;99.90;;;;;;5098408;27;20043;-52
2023/05/18 00:32:07;;;;;;;9.00;4.15;;;7.90;99.90;;;;;;5115539;27;20043;-51
2023/05/18 00:34:36;;;;;;;9.32;4.53;;;8.00;99.90;;;;;;5124993;27;20027;-54
2023/05/18 00:37:02;;;;;;;7.88;4.35;;;8.00;99.90;;;;;;5118391;27;20032;-55
2023/05/18 00:39:29;;;;;;;8.77;4.22;;;8.00;99.90;;;;;;5117096;27;20051;-52
2023/05/18 00:41:56;;;;;;;7.13;4.63;;;8.00;99.90;;;;;;5127551;27;20046;-52
2023/05/18 00:44:23;;;;;;;;;;;8.00;99.90;;;;;;5102585;27;20057;-56
2023/05/18 00:46:50;;;;;;;9.77;4.80;;;8.00;99.90;;;;;;5115225;27;19920;-52
2023/05/18 00:49:18;;;;;;;12.32;4.78;;;8.00;99.90;;;;;;5129679;27;20078;-52
2023/05/18 00:51:45;;;;;;;6.32;4.60;;;8.00;99.90;;;;;;5113931;27;20050;-52
2023/05/18 00:54:13;;;;;;;7.65;4.55;;;8.00;99.90;;;;;;5114991;27;20044;-52
2023/05/18 00:56:40;;;;;;;8.55;4.35;;;7.90;99.90;;;;;;5113200;27;20129;-51
2023/05/18 00:59:09;;;;;;;8.52;4.70;;;7.90;99.90;;;;;;5115340;27;20376;-52
2023/05/18 01:01:42;;;;;;;6.88;4.45;;;8.00;99.90;;;;;;5115966;27;20431;-55
2023/05/18 01:04:12;;;;;;;7.10;4.38;;;8.00;99.90;;;;;;5133563;27;20122;-54
2023/05/18 01:06:40;;;;;;;9.00;4.20;;;8.00;99.90;;;;;;5110672;28;20039;-52
2023/05/18 01:09:10;;;;;;;8.13;4.20;;;8.00;99.90;;;;;;5121973;27;20114;-54
2023/05/18 01:11:56;;;;;;;10.80;5.75;;;8.00;99.90;;;;;;5113328;27;20096;-52
2023/05/18 01:14:33;;;;;;;6.63;4.70;;;7.90;99.90;;;;;;5120854;27;20039;-52
2023/05/18 01:17:32;;;;;;;9.83;4.37;;;7.90;99.90;;;;;;5100535;27;20035;-54
2023/05/18 01:20:22;;;;;;;9.40;4.60;;;7.90;99.90;;;;;;5101848;27;20131;-52
2023/05/18 01:23:43;;;;;;;8.65;5.35;;;7.90;99.90;;;;;;5123640;27;20035;-52
2023/05/18 01:26:15;;;;;;;7.13;4.40;;;7.90;99.90;;;;;;5041312;28;20077;-52
2023/05/18 01:28:45;;;;;;;9.75;5.25;;;7.90;99.90;;;;;;5102767;27;20479;-53
2023/05/18 01:31:14;;;;;;;7.55;5.15;;;7.90;99.90;;;;;;5113805;27;20043;-55
2023/05/18 01:33:43;;;;;;;12.02;5.28;;;7.90;99.90;;;;;;5131986;27;20031;-53
2023/05/18 01:36:10;;;;;;;10.25;5.18;;;7.90;99.90;;;;;;5114658;27;20114;-54
2023/05/18 01:38:37;;;;;;;8.88;5.38;;;7.90;99.90;;;;;;5110229;27;20092;-57
2023/05/18 01:41:17;;;;;;;10.43;4.68;;;7.90;99.90;;;;;;5102137;28;20085;-56
2023/05/18 01:44:03;;;;;;;;;;;7.90;99.90;;;;;;5094052;28;20044;-54
2023/05/18 01:46:42;;;;;;;13.50;5.85;;;7.80;99.90;;;;;;5107564;28;19920;-54
2023/05/18 01:49:16;;;;;;;11.40;6.60;;;7.80;99.90;;;;;;5128557;27;20031;-55
2023/05/18 01:51:45;;;;;;;10.73;6.57;;;7.80;99.90;;;;;;5122791;27;20053;-57
2023/05/18 01:54:15;;;;;;;9.63;5.38;;;7.80;99.90;;;;;;5129856;27;20039;-53
2023/05/18 01:57:07;;;;;;;10.48;5.80;;;7.80;99.90;;;;;;5095773;28;20036;-57
2023/05/18 01:59:35;;;;;;;11.15;5.63;;;7.80;99.90;;;;;;5112759;27;20476;-55
2023/05/18 02:02:03;;;;;;;9.77;5.95;;;7.80;99.90;;;;;;5124799;27;20035;-56
2023/05/18 02:04:29;;;;;;;9.05;5.70;;;7.70;99.90;;;;;;5111170;27;20057;-54
2023/05/18 02:06:56;;;;;;;10.07;5.45;;;7.70;99.90;;;;;;5105432;27;20046;-56
2023/05/18 02:09:23;;;;;;;8.90;5.28;;;7.70;99.90;;;;;;5105007;28;20039;-55
2023/05/18 02:11:50;;;;;;;11.05;6.47;;;7.70;99.90;;;;;;5128167;27;20051;-54
2023/05/18 02:14:17;;;;;;;9.32;6.22;;;7.70;99.90;;;;;;5128835;28;20140;-54
2023/05/18 02:16:51;;;;;;;8.35;6.05;;;7.60;99.90;;;;;;5110040;28;20074;-55
2023/05/18 02:19:20;;;;;;;9.45;6.15;;;7.60;99.90;;;;;;5102597;28;20395;-55
2023/05/18 02:21:47;;;;;;;11.52;6.50;;;7.60;99.90;;;;;;5109891;28;20087;-53
2023/05/18 02:24:14;;;;;;;9.07;6.15;;;7.50;99.90;;;;;;5103182;28;20395;-54
2023/05/18 02:26:41;;;;;;;11.45;5.97;;;7.60;99.90;;;;;;5105372;28;20050;-56
2023/05/18 02:29:10;;;;;;;9.45;6.38;;;7.50;99.90;;;;;;5105446;28;20039;-55
2023/05/18 02:31:37;;;;;;;11.02;6.65;;;7.60;99.90;;;;;;5110835;28;20047;-55
2023/05/18 02:34:05;;;;;;;10.15;7.18;;;7.50;99.90;;;;;;5123512;27;20046;-53
2023/05/18 02:36:38;;;;;;;15.55;7.03;;;7.50;99.90;;;;;;5116114;27;20398;-54
2023/05/18 02:39:06;;;;;;;11.23;6.53;;;7.50;99.90;;;;;;5109421;27;20122;-53
2023/05/18 02:41:33;;;;;;;11.73;6.82;;;7.50;99.90;;;;;;5116712;27;20471;-56
2023/05/18 02:44:04;;;;;;;13.43;6.90;;;7.50;99.90;;;;;;5134632;27;20051;-56
2023/05/18 02:46:31;;;;;;;10.13;6.65;;;7.50;99.90;;;;;;5115658;27;20043;-53
2023/05/18 02:48:58;;;;;;;11.05;6.97;;;7.50;99.90;;;;;;5104270;27;20074;-57
2023/05/18 02:51:25;;;;;;;15.75;7.10;;;7.50;99.90;;;;;;5117173;27;20133;-53
2023/05/18 02:53:52;;;;;;;9.82;6.97;;;7.60;99.90;;;;;;5135343;27;20035;-53
2023/05/18 02:56:19;;;;;;;12.25;7.25;;;7.50;99.90;;;;;;5130981;27;20062;-53
2023/05/18 02:59:03;;;;;;;12.52;6.72;;;7.60;99.90;;;;;;5124450;27;20066;-54
2023/05/18 03:01:36;;;;;;;9.95;6.38;;;7.70;99.90;;;;;;5107555;27;20055;-55
2023/05/18 03:04:03;;;;;;;9.05;5.70;;;7.70;99.90;;;;;;5111313;27;20503;-54
2023/05/18 03:06:30;;;;;;;9.20;6.10;;;7.70;99.90;;;;;;5106064;27;20130;-53
2023/05/18 03:08:57;;;;;;;8.35;5.90;;;7.70;99.90;;;;;;5110549;27;20108;-54
2023/05/18 03:11:32;;;;;;;9.70;5.10;;;7.70;99.90;;;;;;5106779;27;20094;-54
2023/05/18 03:14:00;;;;;;;;;;;7.70;99.90;;;;;;5108832;27;20039;-53
2023/05/18 03:16:27;;;;;;;10.25;5.07;;;7.70;99.90;;;;;;5117004;27;19930;-52
2023/05/18 03:18:57;;;;;;;7.95;4.93;;;7.60;99.90;;;;;;5117230;27;20110;-52
2023/05/18 03:21:32;;;;;;;12.80;5.18;;;7.60;99.90;;;;;;5097459;27;20050;-56
2023/05/18 03:23:59;;;;;;;8.15;4.88;;;7.60;99.90;;;;;;5111478;28;20043;-53
2023/05/18 03:26:29;;;;;;;8.52;5.13;;;7.50;99.90;;;;;;5113236;27;20143;-53
2023/05/18 03:28:56;;;;;;;9.45;5.38;;;7.50;99.90;;;;;;5129083;27;20039;-56
2023/05/18 03:31:24;;;;;;;8.18;5.30;;;7.50;99.90;;;;;;5114960;27;20043;-53
2023/05/18 03:33:53;;;;;;;8.23;5.20;;;7.40;99.90;;;;;;5116451;27;20134;-56
2023/05/18 03:36:21;;;;;;;8.77;5.03;;;7.40;99.90;;;;;;5122074;27;20040;-53
2023/05/18 03:38:48;;;;;;;7.78;5.22;;;7.40;99.90;;;;;;5112590;27;20122;-57
2023/05/18 03:41:15;;;;;;;10.65;5.20;;;7.30;99.90;;;;;;5100738;28;20039;-56
2023/05/18 03:43:42;;;;;;;11.45;5.68;;;7.30;99.90;;;;;;5106773;27;20560;-55
2023/05/18 03:46:09;;;;;;;9.40;5.30;;;7.20;99.90;;;;;;5110994;28;20043;-52
2023/05/18 03:48:36;;;;;;;11.52;5.32;;;7.20;99.90;;;;;;5107343;27;20039;-57
2023/05/18 03:51:03;;;;;;;7.75;5.38;;;7.10;99.90;;;;;;5110192;27;20047;-53
2023/05/18 03:53:32;;;;;;;10.52;4.93;;;7.10;99.90;;;;;;5107411;27;20050;-55
2023/05/18 03:55:59;;;;;;;7.18;4.80;;;7.00;99.90;;;;;;5103706;27;20039;-53
2023/05/18 03:58:26;;;;;;;10.90;5.40;;;6.90;99.90;;;;;;5103395;27;20537;-54
2023/05/18 04:00:53;;;;;;;11.80;6.00;;;6.80;99.90;;;;;;5115531;27;20047;-55
2023/05/18 04:03:23;;;;;;;7.85;5.28;;;6.90;99.90;;;;;;5115349;27;20047;-55
2023/05/18 04:05:50;;;;;;;8.57;5.40;;;6.90;99.90;;;;;;5115394;27;20142;-53
2023/05/18 04:08:18;;;;;;;8.30;5.20;;;6.90;99.90;;;;;;5107538;27;20042;-53
2023/05/18 04:10:44;;;;;;;;;;;6.90;99.90;;;;;;5115489;27;20062;-53
2023/05/18 04:13:11;;;;;;;12.70;5.30;;;6.90;99.90;;;;;;5126946;27;19943;-53
2023/05/18 04:15:38;;;;;;;10.63;5.35;;;6.90;99.90;;;;;;5097512;27;20047;-53
2023/05/18 04:18:05;;;;;;;12.63;5.32;;;7.00;99.90;;;;;;5120561;27;20495;-54
2023/05/18 04:20:32;;;;;;;13.88;5.07;;;7.00;99.90;;;;;;5130889;27;20087;-56
2023/05/18 04:22:59;;;;;;;6.97;4.60;;;7.00;99.90;;;;;;5101951;27;20095;-53
2023/05/18 04:25:26;;;;;;;8.25;5.18;;;7.00;99.90;;;;;;5115831;27;20043;-53
2023/05/18 04:27:55;;;;;;;8.52;4.95;;;7.00;99.90;;;;;;5115852;27;20118;-56
2023/05/18 04:30:26;;;;;;;8.77;4.93;;;7.00;99.90;;;;;;5115745;27;20501;-53
2023/05/18 04:32:53;;;;;;;6.88;4.90;;;7.10;99.90;;;;;;5105897;27;20039;-56
2023/05/18 04:35:20;;;;;;;11.25;5.60;;;7.10;99.90;;;;;;5106929;27;20047;-53
2023/05/18 04:37:47;;;;;;;10.80;5.60;;;7.20;99.90;;;;;;5134015;27;20514;-53
2023/05/18 04:40:16;;;;;;;13.07;5.50;;;7.20;99.90;;;;;;5127655;27;20110;-54
2023/05/18 04:42:46;;;;;;;13.00;5.60;;;7.30;99.90;;;;;;5108323;27;20044;-52
2023/05/18 04:45:18;;;;;;;7.72;4.90;;;7.40;99.90;;;;;;5106839;27;20046;-54
2023/05/18 04:47:51;;;;;;;7.85;5.13;;;7.40;99.90;;;;;;5113777;27;20051;-53
2023/05/18 04:50:22;;;;;;;9.32;5.03;;;7.50;99.90;;;;;;5115026;27;20186;-55
2023/05/18 04:52:50;;;;;;;10.25;4.75;;;7.60;99.90;;;;;;5114563;27;20038;-57
2023/05/18 04:55:27;;;;;;;9.90;5.20;;;7.70;99.90;;;;;;5101530;28;20431;-54
2023/05/18 04:58:04;;;;;;;9.20;5.97;;;7.80;99.90;;;;;;5098959;28;20039;-56
2023/05/18 05:00:31;;;;;;;11.57;5.95;;;7.90;99.90;;;;;;5110735;27;20055;-53
2023/05/18 05:02:58;;;;;;;15.95;7.10;;;7.90;99.90;;;;;;5133445;27;20043;-53
2023/05/18 05:05:25;;;;;;;9.20;5.97;;;7.90;99.90;;;;;;5106243;28;20051;-52
2023/05/18 05:07:53;;;;;;;8.35;5.75;;;8.10;99.90;;;;;;5103347;28;20121;-53
2023/05/18 05:10:20;;;;;;;10.93;5.40;;;8.10;99.90;;;;;;5111345;27;20071;-52
2023/05/18 05:12:51;;;;;;;11.15;5.28;;;8.20;99.90;;;;;;5105940;27;20050;-53
2023/05/18 05:15:18;;;;;;;9.23;5.50;;;8.30;99.90;;;;;;5098980;28;20044;-53
2023/05/18 05:17:48;;;;;;;7.88;4.88;;;8.40;99.90;;;;;;5104807;27;20047;-54
2023/05/18 05:20:16;;;;;;;11.48;4.93;;;8.40;99.90;;;;;;5095815;28;20039;-54
2023/05/18 05:22:43;;;;;;;;;;;8.40;99.90;;;;;;5112497;27;20043;-57
2023/05/18 05:25:12;;;;;;;7.18;4.75;;;8.40;99.90;;;;;;5107435;27;20015;-55
2023/05/18 05:27:39;;;;;;;8.38;4.93;;;8.50;99.90;;;;;;5130453;27;20047;-53
2023/05/18 05:30:07;;;;;;;9.05;4.45;;;8.60;99.90;;;;;;5108378;27;20050;-55
2023/05/18 05:32:36;;;;;;;7.40;4.40;;;8.70;99.90;;;;;;5113417;27;20035;-56
2023/05/18 05:35:04;;;;;;;10.15;4.40;;;8.90;99.90;;;;;;5110529;27;20035;-54
2023/05/18 05:37:32;;;;;;;9.90;4.90;;;9.00;99.90;;;;;;5113802;27;20042;-53
2023/05/18 05:39:59;;;;;;;14.57;5.00;;;9.10;99.90;;;;;;5109527;27;20057;-56
2023/05/18 05:42:28;;;;;;;10.57;4.25;;;9.20;99.90;;;;;;5105736;27;20425;-55
2023/05/18 05:44:55;;;;;;;7.18;4.43;;;9.10;99.90;;;;;;5088425;27;20403;-56
2023/05/18 05:47:24;;;;;;;5.38;4.03;;;9.20;99.90;;;;;;5111089;28;20122;-54
2023/05/18 05:49:51;;;;;;;11.90;4.22;;;9.20;99.90;;;;;;5112553;27;20130;-56
2023/05/18 05:52:19;;;;;;;7.72;4.18;;;9.20;99.90;;;;;;5105533;27;20047;-53
2023/05/18 05:54:46;;;;;;;9.43;4.60;;;9.20;99.90;;;;;;5107343;27;20441;-52
2023/05/18 05:57:14;;;;;;;6.95;4.20;;;9.10;99.90;;;;;;5105589;28;20052;-52
2023/05/18 05:59:41;;;;;;;7.88;4.72;;;9.00;99.90;;;;;;5104731;27;20134;-55
2023/05/18 06:02:07;;;;;;;7.38;4.72;;;8.90;99.90;;;;;;5103892;28;20130;-54
2023/05/18 06:04:34;;;;;;;9.57;5.35;;;8.90;99.90;;;;;;5102150;28;20058;-54
2023/05/18 06:07:02;;;;;;;9.05;4.85;;;8.90;99.90;;;;;;5105138;27;20041;-56
2023/05/18 06:09:29;;;;;;;10.95;4.78;;;8.80;99.90;;;;;;5105595;28;20047;-56
2023/05/18 06:11:56;;;;;;;5.72;4.50;;;8.90;99.90;;;;;;5107519;28;20491;-56
2023/05/18 06:14:24;;;;;;;6.88;4.63;;;9.00;99.90;;;;;;5109371;28;20047;-52
2023/05/18 06:16:52;;;;;;;6.63;4.57;;;9.10;99.90;;;;;;5127463;28;20036;-56
2023/05/18 06:19:19;;;;;;;9.82;4.45;;;9.20;99.90;;;;;;5102133;28;20556;-57
2023/05/18 06:21:46;;;;;;;9.20;4.40;;;9.40;99.90;;;;;;5118824;28;20101;-57
2023/05/18 06:24:14;;;;;;;;;;;9.50;99.90;;;;;;5104112;28;20039;-55
2023/05/18 06:27:01;;;;;;;9.40;4.90;;;9.60;99.90;;;;;;5126631;28;20349;-53
2023/05/18 06:29:48;;;;;;;19.85;5.32;;;9.70;99.90;;;;;;5123999;28;20456;-53
2023/05/18 06:32:37;;;;;;;9.73;5.35;;;9.70;99.90;;;;;;5098702;28;20097;-55
2023/05/18 06:35:05;;;;;;;8.80;5.00;;;9.70;99.90;;;;;;5110609;28;20035;-52
2023/05/18 06:37:32;;;;;;;9.00;5.22;;;9.80;99.90;;;;;;5121741;27;20035;-55
2023/05/18 06:39:59;;;;;;;9.23;5.20;;;9.70;99.90;;;;;;5109740;28;20470;-53
2023/05/18 06:42:26;;;;;;;11.05;6.20;;;9.70;99.90;;;;;;5104794;28;20134;-56
2023/05/18 06:45:02;;;;;;;12.80;5.60;;;9.80;99.90;;;;;;5113593;28;20043;-55
2023/05/18 06:47:49;;;;;;;8.23;4.00;;;9.80;99.90;;;;;;5105456;28;20255;-55
2023/05/18 06:50:16;;;;;;;11.88;6.15;;;9.80;99.90;;;;;;5110786;27;20050;-56
2023/05/18 06:52:43;;;;;;;10.20;6.40;;;9.90;99.90;;;;;;5113323;28;20047;-56
2023/05/18 06:55:10;;;;;;;14.05;6.35;;;9.90;99.90;;;;;;5104811;28;20035;-56
2023/05/18 06:57:37;;;;;;;12.68;6.90;;;10.00;99.90;;;;;;5113597;28;20407;-53
2023/05/18 07:00:06;;;;;;;12.90;6.55;;;10.10;99.90;;;;;;5124447;28;20498;-53
2023/05/18 07:02:33;;;;;;;13.80;6.25;;;10.00;99.90;;;;;;5104759;28;20665;-53
2023/05/18 07:05:04;;;;;;;9.30;6.22;;;10.10;99.90;;;;;;5096090;28;20046;-53
2023/05/18 07:07:31;;;;;;;13.18;6.82;;;10.20;99.90;;;;;;5115442;28;20052;-55
2023/05/18 07:09:58;;;;;;;11.30;6.43;;;10.30;99.90;;;;;;5127186;28;20039;-55
2023/05/18 07:12:26;;;;;;;12.00;7.18;;;10.50;99.90;;;;;;5111277;28;20094;-53
2023/05/18 07:14:53;;;;;;;10.00;6.00;;;10.60;99.90;;;;;;5122842;28;20039;-54
2023/05/18 07:17:19;;;;;;;11.75;5.70;;;10.80;99.90;;;;;;5132041;28;20041;-56
2023/05/18 07:19:47;;;;;;;10.50;5.68;;;10.90;99.90;;;;;;5132374;27;20035;-56
2023/05/18 07:22:14;;;;;;;8.65;5.20;;;11.10;99.90;;;;;;5126748;27;20039;-52
2023/05/18 07:24:42;;;;;;;12.13;6.60;;;11.30;99.90;;;;;;5134003;27;20031;-53
2023/05/18 07:27:08;;;;;;;11.50;5.57;;;11.50;99.90;;;;;;5135596;27;20039;-54
2023/05/18 07:29:35;;;;;;;11.13;5.25;;;11.60;99.90;;;;;;5135320;27;20042;-54
2023/05/18 07:32:02;;;;;;;12.10;5.05;;;11.50;99.90;;;;;;5135179;27;20046;-56
2023/05/18 07:34:30;;;;;;;8.38;5.15;;;11.50;99.90;;;;;;5116759;27;20486;-54
2023/05/18 07:36:57;;;;;;;12.93;4.30;;;11.50;99.90;;;;;;5113966;28;20042;-54
2023/05/18 07:39:27;;;;;;;7.70;4.32;;;11.50;99.90;;;;;;5127077;27;20043;-52
2023/05/18 07:41:55;;;;;;;7.85;4.28;;;11.30;99.90;;;;;;5133898;27;20480;-53
2023/05/18 07:44:21;;;;;;;;;;;11.20;99.90;;;;;;5134812;27;20376;-53
2023/05/18 07:46:48;;;;;;;10.65;4.82;;;11.10;99.90;;;;;;5134026;27;19941;-57
2023/05/18 07:49:15;;;;;;;8.50;4.88;;;11.10;99.90;;;;;;5130560;27;20057;-56
2023/05/18 07:51:42;;;;;;;8.43;4.28;;;11.20;99.90;;;;;;5132777;27;20054;-56
2023/05/18 07:54:09;;;;;;;6.65;3.92;;;11.30;99.90;;;;;;5121727;27;20397;-56
2023/05/18 07:56:35;;;;;;;6.88;4.10;;;11.40;99.90;;;;;;5126743;27;20050;-52
2023/05/18 07:59:02;;;;;;;7.95;3.88;;;11.70;99.90;;;;;;5113723;27;20046;-56
2023/05/18 08:01:30;;;;;;;8.20;4.18;;;11.80;99.90;;;;;;5124394;27;20047;-52
2023/05/18 08:03:57;;;;;;;7.50;3.72;;;12.00;99.90;;;;;;5130834;27;20050;-54
2023/05/18 08:06:24;;;;;;;8.38;4.03;;;12.00;99.90;;;;;;5121224;27;20058;-55
2023/05/18 08:08:51;;;;;;;9.35;3.67;;;12.20;99.90;;;;;;5122062;27;20048;-56
2023/05/18 08:11:18;;;;;;;10.82;3.53;;;12.20;99.90;;;;;;5101811;28;20044;-55
2023/05/18 08:13:45;;;;;;;8.73;3.47;;;12.20;99.90;;;;;;5121696;27;20065;-53
2023/05/18 08:16:12;;;;;;;7.00;3.75;;;12.20;99.90;;;;;;5121790;27;20504;-57
2023/05/18 08:18:39;;;;;;;10.02;3.60;;;12.20;99.90;;;;;;5113215;27;20054;-54
2023/05/18 08:21:08;;;;;;;7.60;2.92;;;12.10;99.90;;;;;;5132737;27;20091;-55
2023/05/18 08:23:36;;;;;;;6.28;3.40;;;12.20;99.90;;;;;;5133711;27;20130;-55
2023/05/18 08:26:03;;;;;;;14.18;3.47;;;12.20;99.90;;;;;;5120738;27;20039;-53
2023/05/18 08:28:30;;;;;;;9.13;3.72;;;12.20;99.90;;;;;;5121864;27;20043;-53
2023/05/18 08:30:57;;;;;;;8.18;3.25;;;12.30;99.90;;;;;;5111933;27;20044;-57
2023/05/18 08:33:24;;;;;;;6.68;3.25;;;12.30;99.90;;;;;;5112940;28;20043;-56
2023/05/18 08:35:51;;;;;;;;;;;12.20;99.90;;;;;;5123412;27;20040;-57
2023/05/18 08:38:18;;;;;;;8.48;6.03;;;12.20;99.90;;;;;;5128230;27;19963;-56
2023/05/18 08:41:10;;;;;;;5.93;2.90;;;12.30;99.90;;;;;;5122695;27;20050;-55
2023/05/18 08:43:39;;;;;;;5.75;3.03;;;12.40;99.90;;;;;;5132732;27;20035;-54
2023/05/18 08:46:12;;;;;;;5.63;2.35;;;12.40;99.90;;;;;;5124528;27;20039;-53
2023/05/18 08:48:42;;;;;;;8.40;3.10;;;12.40;99.90;;;;;;5125353;27;20039;-54
2023/05/18 08:51:09;;;;;;;7.20;2.70;;;12.40;99.90;;;;;;5129066;27;20042;-56
2023/05/18 08:53:36;;;;;;;;;;;12.40;99.90;;;;;;5120284;27;20054;-55
2023/05/18 08:56:04;;;;;;;4.95;2.90;;;12.50;99.90;;;;;;5116019;27;20379;-52
2023/05/18 08:58:36;;;;;;;4.68;2.50;;;12.50;99.90;;;;;;5117577;27;20044;-57
2023/05/18 09:01:03;;;;;;;7.82;2.95;;;12.50;99.90;;;;;;5112217;28;20484;-53
2023/05/18 09:03:31;;;;;;;5.95;2.90;;;12.50;99.90;;;;;;5120617;27;20391;-52
2023/05/18 09:05:59;;;;;;;5.93;3.60;;;12.60;99.90;;;;;;5112904;27;20036;-54
2023/05/18 09:08:28;;;;;;;9.52;3.15;;;12.60;99.90;;;;;;5123852;27;20376;-56
2023/05/18 09:10:57;;;;;;;5.95;3.08;;;12.80;99.90;;;;;;5130422;27;20411;-52
2023/05/18 09:13:25;;;;;;;10.55;4.00;;;12.90;99.90;;;;;;5124084;27;20054;-55
2023/05/18 09:15:52;;;;;;;5.03;3.60;;;13.10;99.90;;;;;;5125034;27;20035;-54
2023/05/18 09:18:19;;;;;;;10.98;3.60;;;13.20;99.90;;;;;;5126471;27;20082;-55
2023/05/18 09:20:50;;;;;;;8.60;3.45;;;13.30;99.90;;;;;;5123243;27;20046;-56
2023/05/18 09:23:17;;;;;;;;;;;13.40;99.90;;;;;;5127249;27;20049;-57
2023/05/18 09:25:45;;;;;;;10.02;3.08;;;13.50;99.90;;;;;;5120510;27;19923;-54
2023/05/18 09:28:15;;;;;;;8.93;3.20;;;13.50;99.90;;;;;;5110699;27;20039;-55
2023/05/18 09:30:42;;;;;;;5.00;3.00;;;13.40;99.90;;;;;;5127734;27;20035;-55
2023/05/18 09:33:16;;;;;;;;;;;13.40;99.90;;;;;;5125417;27;20050;-56
2023/05/18 09:35:48;;;;;;;6.03;2.80;;;13.20;99.90;;;;;;5129283;27;19926;-57
2023/05/18 09:38:20;;;;;;;9.43;3.10;;;13.20;99.90;;;;;;5129850;27;20034;-53
2023/05/18 09:40:49;;;;;;;5.82;3.30;;;13.20;99.90;;;;;;5121451;27;20360;-53
2023/05/18 09:43:17;;;;;;;7.70;3.45;;;13.20;99.90;;;;;;5116349;27;20027;-54
2023/05/18 09:45:47;;;;;;;8.68;3.28;;;13.10;99.90;;;;;;5110168;28;20050;-56
2023/05/18 09:48:16;;;;;;;9.15;3.45;;;13.10;99.90;;;;;;5117612;27;20063;-53
2023/05/18 09:50:44;;;;;;;7.15;2.97;;;13.00;99.90;;;;;;5118264;27;20082;-52
2023/05/18 09:53:13;;;;;;;6.38;3.17;;;12.90;99.90;;;;;;5118823;27;20046;-54
2023/05/18 09:55:48;;;;;;;5.45;3.00;;;12.90;99.90;;;;;;5132302;27;20380;-53
2023/05/18 09:58:15;;;;;;;7.53;3.03;;;12.90;99.90;;;;;;5115786;27;20043;-54
2023/05/18 10:00:43;;;;;;;;;;;12.90;99.90;;;;;;5117321;27;20051;-53
2023/05/18 10:03:21;;;;;;;7.60;2.80;;;13.00;99.90;;;;;;5131814;27;19992;-54
2023/05/18 10:05:49;;;;;;;5.60;2.97;;;13.00;99.90;;;;;;5114752;27;20376;-57
2023/05/18 10:08:16;;;;;;;;;;;13.00;99.90;;;;;;5121338;27;20047;-52
2023/05/18 10:10:48;;;;;;;6.30;2.95;;;12.90;99.90;;;;;;5119669;27;19919;-55
2023/05/18 10:13:18;;;;;;;4.40;2.83;;;12.90;99.90;;;;;;5119633;27;20047;-56
2023/05/18 10:15:57;;;;;;;6.22;2.80;;;13.10;99.90;;;;;;5113091;28;20096;-53
2023/05/18 10:18:26;;;;;;;5.65;2.90;;;13.20;99.90;;;;;;5111149;28;20040;-53
2023/05/18 10:20:55;;;;;;;8.35;2.90;;;13.40;99.90;;;;;;5111589;28;20075;-56
2023/05/18 10:23:29;;;;;;;4.55;2.60;;;13.70;99.90;;;;;;5120206;28;20550;-55
2023/05/18 10:25:57;;;;;;;5.85;2.75;;;13.80;99.90;;;;;;5131940;28;20075;-52
2023/05/18 10:28:31;;;;;;;3.20;2.53;;;13.90;99.90;;;;;;5117514;28;20050;-54
2023/05/18 10:30:59;;;;;;;6.18;2.60;;;14.00;99.90;;;;;;5121559;28;20411;-53
2023/05/18 10:33:27;;;;;;;5.68;2.55;;;14.10;99.90;;;;;;5122180;28;20075;-56
2023/05/18 10:35:56;;;;;;;4.25;2.55;;;14.20;99.90;;;;;;5130484;28;20406;-56
2023/05/18 10:38:25;;;;;;;6.75;2.45;;;14.10;99.90;;;;;;5116228;28;20047;-53
2023/05/18 10:40:55;;;;;;;5.75;2.63;;;14.00;99.90;;;;;;5114545;28;20044;-55
2023/05/18 10:43:26;;;;;;;5.20;2.47;;;14.00;99.90;;;;;;5124889;28;20497;-55
2023/05/18 10:45:58;;;;;;;5.57;2.83;;;13.80;99.90;;;;;;5121983;28;20048;-56
2023/05/18 10:48:27;;;;;;;4.38;2.20;;;13.60;99.90;;;;;;5129827;28;20057;-54
2023/05/18 10:50:56;;;;;;;4.03;2.42;;;13.50;99.90;;;;;;5121195;28;20043;-54
2023/05/18 10:53:25;;;;;;;4.53;2.60;;;13.50;99.90;;;;;;5115586;27;20483;-53
2023/05/18 10:55:53;;;;;;;8.48;2.80;;;13.40;99.90;;;;;;5118051;27;20032;-54
2023/05/18 10:58:26;;;;;;;7.72;2.72;;;13.40;99.90;;;;;;5128549;27;20090;-55
2023/05/18 11:00:56;;;;;;;7.47;2.47;;;13.30;99.90;;;;;;5126597;27;20051;-53
2023/05/18 11:03:25;;;;;;;4.90;2.47;;;13.30;99.90;;;;;;5121535;27;20403;-53
2023/05/18 11:06:10;;;;;;;7.72;3.55;;;13.40;99.90;;;;;;5125794;27;20049;-53
2023/05/18 11:08:47;;;;;;;4.72;2.55;;;13.30;99.90;;;;;;5135622;27;20049;-53
2023/05/18 11:11:14;;;;;;;5.63;3.00;;;13.30;99.90;;;;;;5117575;27;20043;-52
2023/05/18 11:13:48;;;;;;;4.88;2.50;;;13.30;99.90;;;;;;5126596;27;20292;-57
2023/05/18 11:16:15;;;;;;;6.75;2.70;;;13.30;99.90;;;;;;5114706;27;20430;-56
2023/05/18 11:18:50;;;;;;;6.32;2.90;;;13.40;99.90;;;;;;5114592;28;20459;-54
2023/05/18 11:21:23;;;;;;;12.43;2.92;;;13.30;99.90;;;;;;5121282;27;20064;-55
2023/05/18 11:24:12;;;;;;;6.65;2.80;;;13.30;99.90;;;;;;5126158;27;20028;-54
2023/05/18 11:26:41;;;;;;;5.40;2.60;;;13.40;99.90;;;;;;5129388;27;20043;-52
2023/05/18 11:29:20;;;;;;;5.35;2.67;;;13.40;99.90;;;;;;5134638;27;20050;-54
2023/05/18 11:31:52;;;;;;;4.38;2.45;;;13.30;99.90;;;;;;5132343;27;20127;-53
2023/05/18 11:34:46;;;;;;;8.20;3.25;;;13.40;99.90;;;;;;5122986;27;20028;-52
2023/05/18 11:37:36;;;;;;;8.02;3.00;;;13.40;99.90;;;;;;5125856;27;20114;-53
2023/05/18 11:40:11;;;;;;;7.30;2.80;;;13.40;99.90;;;;;;5131147;27;20562;-53
2023/05/18 11:42:38;;;;;;;5.32;2.13;;;13.40;99.90;;;;;;5134550;27;20491;-54
2023/05/18 11:45:06;;;;;;;5.13;2.55;;;13.30;99.90;;;;;;5116361;27;20035;-56
2023/05/18 11:47:35;;;;;;;5.55;2.45;;;13.30;99.90;;;;;;5133755;27;20104;-54
2023/05/18 11:50:06;;;;;;;4.50;2.40;;;13.30;99.90;;;;;;5134522;27;20050;-56
2023/05/18 11:52:43;;;;;;;6.88;3.13;;;13.30;99.90;;;;;;5132937;27;20053;-55
2023/05/18 11:55:14;;;;;;;8.45;3.15;;;13.20;99.90;;;;;;5133953;27;20046;-56
2023/05/18 11:57:46;;;;;;;9.85;3.05;;;13.20;99.90;;;;;;5132959;27;20031;-56
2023/05/18 12:00:14;;;;;;;4.30;2.40;;;13.20;99.90;;;;;;5134316;27;20372;-57
2023/05/18 12:02:43;;;;;;;8.05;2.88;;;13.30;99.90;;;;;;5114837;27;20039;-55
2023/05/18 12:05:12;;;;;;;4.32;2.42;;;13.40;99.90;;;;;;5134012;27;20673;-54
2023/05/18 12:07:40;;;;;;;4.38;2.63;;;13.50;99.90;;;;;;5130025;27;20044;-53
2023/05/18 12:10:13;;;;;;;6.72;2.65;;;13.60;99.90;;;;;;5133147;27;20053;-53
2023/05/18 12:12:40;;;;;;;6.70;2.83;;;13.60;99.90;;;;;;5127157;27;20042;-57
2023/05/18 12:15:08;;;;;;;;;;;13.60;99.90;;;;;;5134436;27;20383;-56
2023/05/18 12:17:39;;;;;;;7.45;2.80;;;13.60;99.90;;;;;;5132533;27;20373;-56
2023/05/18 12:20:08;;;;;;;8.60;3.00;;;13.60;99.90;;;;;;5126956;27;20039;-54
2023/05/18 12:22:36;;;;;;;12.85;2.97;;;13.50;99.90;;;;;;5132164;27;20127;-54
2023/05/18 12:25:03;;;;;;;11.50;3.00;;;13.50;99.90;;;;;;5133978;27;20035;-55
2023/05/18 12:27:29;;;;;;;5.80;2.72;;;13.50;99.90;;;;;;5129319;27;20043;-54
2023/05/18 12:29:56;;;;;;;4.10;2.55;;;13.40;99.90;;;;;;5133852;27;20049;-52
2023/05/18 12:32:23;;;;;;;7.35;3.13;;;13.50;99.90;;;;;;5132052;27;21030;-55
2023/05/18 12:34:50;;;;;;;4.13;2.72;;;13.60;99.90;;;;;;5130750;27;20054;-54
2023/05/18 12:37:18;;;;;;;11.85;3.10;;;13.60;99.90;;;;;;5103240;28;20043;-55
2023/05/18 12:39:51;;;;;;;6.88;2.78;;;13.60;99.90;;;;;;5129489;27;20043;-54
2023/05/18 12:42:17;;;;;;;9.38;2.80;;;13.70;99.90;;;;;;5132627;27;20034;-53
2023/05/18 12:44:44;;;;;;;4.70;3.05;;;13.70;99.90;;;;;;5134105;27;20391;-56
2023/05/18 12:47:12;;;;;;;10.65;2.60;;;13.70;99.90;;;;;;5124635;27;20089;-55
2023/05/18 12:49:41;;;;;;;7.88;3.05;;;13.60;99.90;;;;;;5118969;27;20546;-56
2023/05/18 12:52:10;;;;;;;5.70;2.92;;;13.60;99.90;;;;;;5122919;27;20043;-54
2023/05/18 12:54:48;;;;;;;6.53;2.80;;;13.60;99.90;;;;;;5126962;27;20047;-56
2023/05/18 12:57:15;;;;;;;9.95;2.70;;;13.50;99.90;;;;;;5129318;27;20523;-54
2023/05/18 12:59:49;;;;;;;5.50;2.83;;;13.50;99.90;;;;;;5121187;27;20040;-55
2023/05/18 13:02:35;;;;;;;7.95;2.70;;;13.60;99.90;;;;;;5114919;27;20043;-55
2023/05/18 13:05:10;;;;;;;5.30;2.83;;;13.50;99.90;;;;;;5113169;27;20126;-54